createdAt,value
2023-04-22T00:00:05.000Z,280.9
2023-04-22T00:02:11.000Z,280.89
2023-04-22T00:03:37.000Z,280.86
2023-04-22T00:05:44.000Z,280.82
2023-04-22T00:07:10.000Z,280.82
2023-04-22T00:09:17.000Z,280.79
2023-04-22T00:10:43.000Z,280.76
2023-04-22T00:12:49.000Z,280.76
2023-04-22T00:14:16.000Z,280.76
2023-04-22T00:16:22.000Z,280.78
2023-04-22T00:17:49.000Z,280.78
2023-04-22T00:19:55.000Z,280.75
2023-04-22T00:21:22.000Z,280.73
2023-04-22T00:23:28.000Z,280.73
2023-04-22T00:24:54.000Z,280.73
2023-04-22T00:27:00.000Z,280.73
2023-04-22T00:28:27.000Z,280.72
2023-04-22T00:30:33.000Z,280.72
2023-04-22T00:33:24.000Z,280.72
2023-04-22T00:34:51.000Z,280.72
2023-04-22T00:36:57.000Z,280.72
2023-04-22T00:38:23.000Z,280.69
2023-04-22T00:40:29.000Z,280.69
2023-04-22T00:41:56.000Z,280.71
2023-04-22T00:44:02.000Z,280.72
2023-04-22T00:45:28.000Z,280.72
2023-04-22T00:47:34.000Z,280.76
2023-04-22T00:49:01.000Z,280.76
2023-04-22T00:51:07.000Z,280.76
2023-04-22T00:52:34.000Z,280.76
2023-04-22T00:54:40.000Z,280.76
2023-04-22T00:56:06.000Z,280.75
2023-04-22T00:58:12.000Z,280.75
2023-04-22T00:59:39.000Z,280.76
2023-04-22T01:01:46.000Z,280.76
2023-04-22T01:03:12.000Z,280.75
2023-04-22T01:05:19.000Z,280.76
2023-04-22T01:06:45.000Z,280.75
2023-04-22T01:08:51.000Z,280.73
2023-04-22T01:11:43.000Z,280.72
2023-04-22T01:13:09.000Z,280.71
2023-04-22T01:15:15.000Z,280.71
2023-04-22T01:16:42.000Z,280.69
2023-04-22T01:18:48.000Z,280.69
2023-04-22T01:20:14.000Z,280.66
2023-04-22T01:22:20.000Z,280.66
2023-04-22T01:23:47.000Z,280.65
2023-04-22T01:25:53.000Z,280.66
2023-04-22T01:27:20.000Z,280.66
2023-04-22T01:29:26.000Z,280.68
2023-04-22T01:30:52.000Z,280.68
2023-04-22T01:32:58.000Z,280.66
2023-04-22T01:34:25.000Z,280.66
2023-04-22T01:36:31.000Z,280.65
2023-04-22T01:37:58.000Z,280.64
2023-04-22T01:40:04.000Z,280.65
2023-04-22T01:41:30.000Z,280.64
2023-04-22T01:43:36.000Z,280.64
2023-04-22T01:45:03.000Z,280.64
2023-04-22T01:47:09.000Z,280.64
2023-04-22T01:50:00.000Z,280.65
2023-04-22T01:51:27.000Z,280.64
2023-04-22T01:53:33.000Z,280.65
2023-04-22T01:54:59.000Z,280.64
2023-04-22T01:57:05.000Z,280.64
2023-04-22T01:58:32.000Z,280.64
2023-04-22T02:00:38.000Z,280.64
2023-04-22T02:02:04.000Z,280.64
2023-04-22T02:04:11.000Z,280.62
2023-04-22T02:05:37.000Z,280.64
2023-04-22T02:07:43.000Z,280.64
2023-04-22T02:09:10.000Z,280.62
2023-04-22T02:11:16.000Z,280.61
2023-04-22T02:12:42.000Z,280.62
2023-04-22T02:14:48.000Z,280.61
2023-04-22T02:16:15.000Z,280.57
2023-04-22T02:18:21.000Z,280.59
2023-04-22T02:19:48.000Z,280.59
2023-04-22T02:21:54.000Z,280.61
2023-04-22T02:23:20.000Z,280.61
2023-04-22T02:25:27.000Z,280.59
2023-04-22T02:28:18.000Z,280.61
2023-04-22T02:29:44.000Z,280.61
2023-04-22T02:31:50.000Z,280.61
2023-04-22T02:33:17.000Z,280.61
2023-04-22T02:35:23.000Z,280.59
2023-04-22T02:36:50.000Z,280.59
2023-04-22T02:38:56.000Z,280.59
2023-04-22T02:40:22.000Z,280.57
2023-04-22T02:42:29.000Z,280.57
2023-04-22T02:43:55.000Z,280.54
2023-04-22T02:46:01.000Z,280.54
2023-04-22T02:47:28.000Z,280.56
2023-04-22T02:49:34.000Z,280.56
2023-04-22T02:51:00.000Z,280.56
2023-04-22T02:53:06.000Z,280.54
2023-04-22T02:54:33.000Z,280.54
2023-04-22T02:56:39.000Z,280.54
2023-04-22T02:58:06.000Z,280.54
2023-04-22T03:00:12.000Z,280.53
2023-04-22T03:01:38.000Z,280.53
2023-04-22T03:03:44.000Z,280.51
2023-04-22T03:06:36.000Z,280.53
2023-04-22T03:08:02.000Z,280.53
2023-04-22T03:10:08.000Z,280.54
2023-04-22T03:11:35.000Z,280.54
2023-04-22T03:13:41.000Z,280.56
2023-04-22T03:15:08.000Z,280.57
2023-04-22T03:17:14.000Z,280.57
2023-04-22T03:18:40.000Z,280.57
2023-04-22T03:20:46.000Z,280.59
2023-04-22T03:22:13.000Z,280.59
2023-04-22T03:24:19.000Z,280.59
2023-04-22T03:25:45.000Z,280.57
2023-04-22T03:27:51.000Z,280.57
2023-04-22T03:29:18.000Z,280.57
2023-04-22T03:31:24.000Z,280.57
2023-04-22T03:32:50.000Z,280.57
2023-04-22T03:34:57.000Z,280.57
2023-04-22T03:36:23.000Z,280.56
2023-04-22T03:38:29.000Z,280.56
2023-04-22T03:39:56.000Z,280.54
2023-04-22T03:42:02.000Z,280.56
2023-04-22T03:44:53.000Z,280.53
2023-04-22T03:46:20.000Z,280.51
2023-04-22T03:48:26.000Z,280.53
2023-04-22T03:49:52.000Z,280.49
2023-04-22T03:51:58.000Z,280.49
2023-04-22T03:53:25.000Z,280.49
2023-04-22T03:55:31.000Z,280.49
2023-04-22T03:56:58.000Z,280.47
2023-04-22T03:59:04.000Z,280.47
2023-04-22T04:00:30.000Z,280.46
2023-04-22T04:02:36.000Z,280.46
2023-04-22T04:04:03.000Z,280.46
2023-04-22T04:06:10.000Z,280.43
2023-04-22T04:07:36.000Z,280.43
2023-04-22T04:09:42.000Z,280.42
2023-04-22T04:11:09.000Z,280.42
2023-04-22T04:13:15.000Z,280.4
2023-04-22T04:14:42.000Z,280.4
2023-04-22T04:16:48.000Z,280.42
2023-04-22T04:18:14.000Z,280.42
2023-04-22T04:20:20.000Z,280.43
2023-04-22T04:23:11.000Z,280.43
2023-04-22T04:24:38.000Z,280.45
2023-04-22T04:26:44.000Z,280.45
2023-04-22T04:28:10.000Z,280.42
2023-04-22T04:30:16.000Z,280.42
2023-04-22T04:31:43.000Z,280.42
2023-04-22T04:33:49.000Z,280.4
2023-04-22T04:35:16.000Z,280.4
2023-04-22T04:37:22.000Z,280.38
2023-04-22T04:38:48.000Z,280.38
2023-04-22T04:40:54.000Z,280.38
2023-04-22T04:42:21.000Z,280.4
2023-04-22T04:44:27.000Z,280.38
2023-04-22T04:45:54.000Z,280.4
2023-04-22T04:48:00.000Z,280.4
2023-04-22T04:49:26.000Z,280.42
2023-04-22T04:51:33.000Z,280.42
2023-04-22T04:52:59.000Z,280.43
2023-04-22T04:55:05.000Z,280.43
2023-04-22T04:56:32.000Z,280.45
2023-04-22T04:58:38.000Z,280.46
2023-04-22T05:01:29.000Z,280.51
2023-04-22T05:02:55.000Z,280.54
2023-04-22T05:05:02.000Z,280.59
2023-04-22T05:06:29.000Z,280.65
2023-04-22T05:08:35.000Z,280.66
2023-04-22T05:10:01.000Z,280.71
2023-04-22T05:12:07.000Z,280.75
2023-04-22T05:13:34.000Z,280.8
2023-04-22T05:15:40.000Z,280.84
2023-04-22T05:17:07.000Z,280.9
2023-04-22T05:19:13.000Z,280.96
2023-04-22T05:20:39.000Z,281.04
2023-04-22T05:22:45.000Z,281.11
2023-04-22T05:24:12.000Z,281.18
2023-04-22T05:26:18.000Z,281.23
2023-04-22T05:27:44.000Z,281.3
2023-04-22T05:29:51.000Z,281.39
2023-04-22T05:31:17.000Z,281.47
2023-04-22T05:33:23.000Z,281.52
2023-04-22T05:34:50.000Z,281.62
2023-04-22T05:36:56.000Z,281.68
2023-04-22T05:39:47.000Z,281.73
2023-04-22T05:41:14.000Z,281.81
2023-04-22T05:43:20.000Z,281.85
2023-04-22T05:44:46.000Z,281.88
2023-04-22T05:46:53.000Z,281.91
2023-04-22T05:48:19.000Z,281.94
2023-04-22T05:50:25.000Z,281.95
2023-04-22T05:51:52.000Z,281.98
2023-04-22T05:53:58.000Z,281.99
2023-04-22T05:55:24.000Z,282.02
2023-04-22T05:57:31.000Z,282.05
2023-04-22T05:58:57.000Z,282.09
2023-04-22T06:01:03.000Z,282.1
2023-04-22T06:02:30.000Z,282.14
2023-04-22T06:04:36.000Z,282.13
2023-04-22T06:06:04.000Z,282.17
2023-04-22T06:08:11.000Z,282.14
2023-04-22T06:09:37.000Z,282.19
2023-04-22T06:11:44.000Z,282.19
2023-04-22T06:13:10.000Z,282.2
2023-04-22T06:15:16.000Z,282.21
2023-04-22T06:18:08.000Z,282.24
2023-04-22T06:19:34.000Z,282.27
2023-04-22T06:21:40.000Z,282.28
2023-04-22T06:23:07.000Z,282.31
2023-04-22T06:25:13.000Z,282.36
2023-04-22T06:26:39.000Z,282.38
2023-04-22T06:28:45.000Z,282.43
2023-04-22T06:30:12.000Z,282.46
2023-04-22T06:32:18.000Z,282.52
2023-04-22T06:33:45.000Z,282.57
2023-04-22T06:35:51.000Z,282.6
2023-04-22T06:37:17.000Z,282.64
2023-04-22T06:39:23.000Z,282.7
2023-04-22T06:40:50.000Z,282.75
2023-04-22T06:42:56.000Z,282.78
2023-04-22T06:44:23.000Z,282.84
2023-04-22T06:46:29.000Z,282.88
2023-04-22T06:47:55.000Z,282.93
2023-04-22T06:50:01.000Z,282.99
2023-04-22T06:51:28.000Z,283.07
2023-04-22T06:53:34.000Z,283.13
2023-04-22T06:56:25.000Z,283.27
2023-04-22T06:57:52.000Z,283.36
2023-04-22T06:59:58.000Z,283.43
2023-04-22T07:01:24.000Z,283.52
2023-04-22T07:03:31.000Z,283.61
2023-04-22T07:04:57.000Z,283.73
2023-04-22T07:07:03.000Z,283.79
2023-04-22T07:08:30.000Z,283.9
2023-04-22T07:10:36.000Z,284.01
2023-04-22T07:12:03.000Z,284.17
2023-04-22T07:14:09.000Z,284.24
2023-04-22T07:15:35.000Z,284.3
2023-04-22T07:17:41.000Z,284.4
2023-04-22T07:19:08.000Z,284.54
2023-04-22T07:21:14.000Z,284.68
2023-04-22T07:22:41.000Z,284.89
2023-04-22T07:24:47.000Z,285.03
2023-04-22T07:26:13.000Z,285.21
2023-04-22T07:28:19.000Z,285.35
2023-04-22T07:29:46.000Z,285.42
2023-04-22T07:31:52.000Z,285.52
2023-04-22T07:34:44.000Z,285.65
2023-04-22T07:36:10.000Z,285.74
2023-04-22T07:38:16.000Z,285.79
2023-04-22T07:39:43.000Z,285.91
2023-04-22T07:41:49.000Z,285.97
2023-04-22T07:43:15.000Z,286.02
2023-04-22T07:45:21.000Z,286.07
2023-04-22T07:46:48.000Z,286.11
2023-04-22T07:48:54.000Z,286.16
2023-04-22T07:50:21.000Z,286.22
2023-04-22T07:52:27.000Z,286.27
2023-04-22T07:53:53.000Z,286.36
2023-04-22T07:56:00.000Z,286.43
2023-04-22T07:57:28.000Z,286.52
2023-04-22T07:59:34.000Z,286.62
2023-04-22T08:01:01.000Z,286.76
2023-04-22T08:03:07.000Z,286.87
2023-04-22T08:04:34.000Z,287
2023-04-22T08:06:40.000Z,287.09
2023-04-22T08:08:07.000Z,287.23
2023-04-22T08:10:13.000Z,287.31
2023-04-22T08:13:04.000Z,287.53
2023-04-22T08:14:31.000Z,287.67
2023-04-22T08:16:37.000Z,287.81
2023-04-22T08:18:03.000Z,287.91
2023-04-22T08:20:10.000Z,287.92
2023-04-22T08:21:36.000Z,287.95
2023-04-22T08:23:42.000Z,287.99
2023-04-22T08:25:09.000Z,288.07
2023-04-22T08:27:15.000Z,288.12
2023-04-22T08:28:41.000Z,288.2
2023-04-22T08:30:47.000Z,288.31
2023-04-22T08:32:14.000Z,288.39
2023-04-22T08:34:20.000Z,288.46
2023-04-22T08:35:46.000Z,288.57
2023-04-22T08:37:53.000Z,288.68
2023-04-22T08:39:19.000Z,288.79
2023-04-22T08:41:25.000Z,288.81
2023-04-22T08:42:52.000Z,288.93
2023-04-22T08:44:58.000Z,289.01
2023-04-22T08:46:24.000Z,289.11
2023-04-22T08:48:31.000Z,289.21
2023-04-22T08:51:22.000Z,289.28
2023-04-22T08:52:49.000Z,289.33
2023-04-22T08:54:55.000Z,289.36
2023-04-22T08:56:21.000Z,289.39
2023-04-22T08:58:28.000Z,289.49
2023-04-22T08:59:54.000Z,289.55
2023-04-22T09:02:00.000Z,289.65
2023-04-22T09:03:27.000Z,289.8
2023-04-22T09:05:33.000Z,289.91
2023-04-22T09:07:00.000Z,289.94
2023-04-22T09:09:06.000Z,289.88
2023-04-22T09:10:32.000Z,289.86
2023-04-22T09:12:40.000Z,289.83
2023-04-22T09:14:06.000Z,289.88
2023-04-22T09:16:12.000Z,289.98
2023-04-22T09:17:39.000Z,290.11
2023-04-22T09:19:45.000Z,290.23
2023-04-22T09:21:12.000Z,290.25
2023-04-22T09:23:18.000Z,290.3
2023-04-22T09:24:44.000Z,290.3
2023-04-22T09:26:50.000Z,290.25
2023-04-22T09:29:42.000Z,290.28
2023-04-22T09:31:08.000Z,290.33
2023-04-22T09:33:14.000Z,290.37
2023-04-22T09:34:41.000Z,290.37
2023-04-22T09:36:47.000Z,290.41
2023-04-22T09:38:13.000Z,290.49
2023-04-22T09:40:20.000Z,290.55
2023-04-22T09:41:46.000Z,290.65
2023-04-22T09:43:52.000Z,290.79
2023-04-22T09:45:19.000Z,290.98
2023-04-22T09:47:25.000Z,291.02
2023-04-22T09:48:51.000Z,291.11
2023-04-22T09:50:57.000Z,291.13
2023-04-22T09:52:24.000Z,291.21
2023-04-22T09:54:30.000Z,291.3
2023-04-22T09:55:57.000Z,291.39
2023-04-22T09:58:03.000Z,291.48
2023-04-22T09:59:29.000Z,291.52
2023-04-22T10:01:35.000Z,291.46
2023-04-22T10:03:02.000Z,291.5
2023-04-22T10:05:09.000Z,291.53
2023-04-22T10:08:00.000Z,291.71
2023-04-22T10:09:27.000Z,291.82
2023-04-22T10:11:33.000Z,291.96
2023-04-22T10:12:59.000Z,292.07
2023-04-22T10:15:06.000Z,292.15
2023-04-22T10:16:32.000Z,292.22
2023-04-22T10:18:38.000Z,292.23
2023-04-22T10:20:05.000Z,292.3
2023-04-22T10:22:11.000Z,292.37
2023-04-22T10:23:37.000Z,292.39
2023-04-22T10:25:44.000Z,292.44
2023-04-22T10:27:10.000Z,292.41
2023-04-22T10:29:16.000Z,292.43
2023-04-22T10:30:43.000Z,292.39
2023-04-22T10:32:49.000Z,292.37
2023-04-22T10:34:16.000Z,292.41
2023-04-22T10:36:22.000Z,292.43
2023-04-22T10:37:48.000Z,292.43
2023-04-22T10:39:54.000Z,292.48
2023-04-22T10:41:21.000Z,292.57
2023-04-22T10:43:27.000Z,292.62
2023-04-22T10:46:18.000Z,292.62
2023-04-22T10:47:45.000Z,292.78
2023-04-22T10:49:51.000Z,292.87
2023-04-22T10:51:18.000Z,292.97
2023-04-22T10:53:24.000Z,293.01
2023-04-22T10:54:50.000Z,293.15
2023-04-22T10:56:56.000Z,293.27
2023-04-22T10:58:24.000Z,293.4
2023-04-22T11:00:30.000Z,293.48
2023-04-22T11:02:18.000Z,293.5
2023-04-22T11:04:24.000Z,293.5
2023-04-22T11:05:51.000Z,293.43
2023-04-22T11:07:57.000Z,293.4
2023-04-22T11:09:23.000Z,293.36
2023-04-22T11:11:30.000Z,293.37
2023-04-22T11:12:56.000Z,293.47
2023-04-22T11:15:02.000Z,293.53
2023-04-22T11:16:29.000Z,293.55
2023-04-22T11:18:35.000Z,293.6
2023-04-22T11:20:02.000Z,293.76
2023-04-22T11:22:08.000Z,293.84
2023-04-22T11:24:59.000Z,293.92
2023-04-22T11:26:26.000Z,293.95
2023-04-22T11:28:32.000Z,293.94
2023-04-22T11:29:58.000Z,293.94
2023-04-22T11:32:04.000Z,293.8
2023-04-22T11:33:31.000Z,293.74
2023-04-22T11:35:37.000Z,293.69
2023-04-22T11:37:04.000Z,293.7
2023-04-22T11:39:10.000Z,293.69
2023-04-22T11:40:36.000Z,293.66
2023-04-22T11:42:46.000Z,293.7
2023-04-22T11:44:12.000Z,293.7
2023-04-22T11:46:18.000Z,293.7
2023-04-22T11:47:48.000Z,293.73
2023-04-22T11:49:54.000Z,293.76
2023-04-22T11:51:20.000Z,293.78
2023-04-22T11:53:27.000Z,293.83
2023-04-22T11:54:53.000Z,293.87
2023-04-22T11:56:59.000Z,293.8
2023-04-22T11:58:26.000Z,293.76
2023-04-22T12:00:32.000Z,293.77
2023-04-22T12:03:23.000Z,293.81
2023-04-22T12:04:51.000Z,293.84
2023-04-22T12:06:57.000Z,293.81
2023-04-22T12:08:23.000Z,293.8
2023-04-22T12:10:30.000Z,293.78
2023-04-22T12:11:56.000Z,293.76
2023-04-22T12:14:02.000Z,293.77
2023-04-22T12:15:29.000Z,293.8
2023-04-22T12:17:35.000Z,293.8
2023-04-22T12:19:01.000Z,293.8
2023-04-22T12:21:07.000Z,293.7
2023-04-22T12:22:34.000Z,293.7
2023-04-22T12:24:40.000Z,293.71
2023-04-22T12:26:07.000Z,293.8
2023-04-22T12:28:13.000Z,293.84
2023-04-22T12:29:39.000Z,293.91
2023-04-22T12:31:46.000Z,293.98
2023-04-22T12:33:13.000Z,294.06
2023-04-22T12:35:19.000Z,294.12
2023-04-22T12:36:45.000Z,294.26
2023-04-22T12:38:52.000Z,294.31
2023-04-22T12:41:42.000Z,294.38
2023-04-22T12:43:09.000Z,294.52
2023-04-22T12:45:15.000Z,294.68
2023-04-22T12:46:42.000Z,294.96
2023-04-22T12:48:48.000Z,295.15
2023-04-22T12:50:14.000Z,295.33
2023-04-22T12:52:20.000Z,295.5
2023-04-22T12:53:47.000Z,295.54
2023-04-22T12:55:53.000Z,295.56
2023-04-22T12:57:20.000Z,295.5
2023-04-22T12:59:26.000Z,295.58
2023-04-22T13:00:52.000Z,295.64
2023-04-22T13:02:59.000Z,295.67
2023-04-22T13:04:25.000Z,295.61
2023-04-22T13:06:32.000Z,295.6
2023-04-22T13:07:58.000Z,295.67
2023-04-22T13:10:13.000Z,295.63
2023-04-22T13:11:39.000Z,295.51
2023-04-22T13:13:46.000Z,295.39
2023-04-22T13:15:12.000Z,295.15
2023-04-22T13:17:18.000Z,294.96
2023-04-22T13:20:09.000Z,294.74
2023-04-22T13:21:36.000Z,294.61
2023-04-22T13:23:42.000Z,294.6
2023-04-22T13:25:09.000Z,294.49
2023-04-22T13:27:15.000Z,294.41
2023-04-22T13:28:41.000Z,294.35
2023-04-22T13:30:48.000Z,294.34
2023-04-22T13:32:14.000Z,294.37
2023-04-22T13:34:20.000Z,294.35
2023-04-22T13:35:47.000Z,294.28
2023-04-22T13:37:53.000Z,294.35
2023-04-22T13:39:20.000Z,294.45
2023-04-22T13:41:26.000Z,294.38
2023-04-22T13:42:52.000Z,294.31
2023-04-22T13:44:58.000Z,294.27
2023-04-22T13:46:25.000Z,294.24
2023-04-22T13:48:31.000Z,294.23
2023-04-22T13:49:58.000Z,294.26
2023-04-22T13:52:04.000Z,294.27
2023-04-22T13:53:31.000Z,294.23
2023-04-22T13:55:40.000Z,294.2
2023-04-22T13:58:31.000Z,294.17
2023-04-22T13:59:58.000Z,294.12
2023-04-22T14:02:04.000Z,294.1
2023-04-22T14:03:30.000Z,293.99
2023-04-22T14:05:37.000Z,293.94
2023-04-22T14:07:04.000Z,293.83
2023-04-22T14:09:10.000Z,293.8
2023-04-22T14:10:36.000Z,293.81
2023-04-22T14:12:43.000Z,293.85
2023-04-22T14:14:09.000Z,293.88
2023-04-22T14:16:15.000Z,293.87
2023-04-22T14:17:42.000Z,293.92
2023-04-22T14:19:48.000Z,293.94
2023-04-22T14:21:15.000Z,293.92
2023-04-22T14:23:21.000Z,293.88
2023-04-22T14:24:47.000Z,293.74
2023-04-22T14:26:54.000Z,293.64
2023-04-22T14:28:20.000Z,293.6
2023-04-22T14:30:26.000Z,293.59
2023-04-22T14:31:53.000Z,293.56
2023-04-22T14:33:59.000Z,293.48
2023-04-22T14:36:50.000Z,293.4
2023-04-22T14:38:17.000Z,293.36
2023-04-22T14:40:23.000Z,293.33
2023-04-22T14:41:49.000Z,293.26
2023-04-22T14:43:56.000Z,293.19
2023-04-22T14:45:22.000Z,293.13
2023-04-22T14:47:28.000Z,293.05
2023-04-22T14:48:55.000Z,293
2023-04-22T14:51:01.000Z,293
2023-04-22T14:52:27.000Z,292.96
2023-04-22T14:54:34.000Z,292.93
2023-04-22T14:56:00.000Z,292.93
2023-04-22T14:58:06.000Z,292.9
2023-04-22T14:59:33.000Z,292.86
2023-04-22T15:01:39.000Z,292.83
2023-04-22T15:03:06.000Z,292.8
2023-04-22T15:05:12.000Z,292.76
2023-04-22T15:06:38.000Z,292.72
2023-04-22T15:08:45.000Z,292.69
2023-04-22T15:10:11.000Z,292.64
2023-04-22T15:12:18.000Z,292.58
2023-04-22T15:15:09.000Z,292.51
2023-04-22T15:16:35.000Z,292.44
2023-04-22T15:18:41.000Z,292.39
2023-04-22T15:20:08.000Z,292.33
2023-04-22T15:22:15.000Z,292.29
2023-04-22T15:23:41.000Z,292.23
2023-04-22T15:25:48.000Z,292.18
2023-04-22T15:27:14.000Z,292.11
2023-04-22T15:29:20.000Z,292.07
2023-04-22T15:30:47.000Z,292.01
2023-04-22T15:32:53.000Z,291.93
2023-04-22T15:34:19.000Z,291.85
2023-04-22T15:36:26.000Z,291.79
2023-04-22T15:37:52.000Z,291.75
2023-04-22T15:39:58.000Z,291.72
2023-04-22T15:41:25.000Z,291.67
2023-04-22T15:43:31.000Z,291.64
2023-04-22T15:44:57.000Z,291.6
2023-04-22T15:47:03.000Z,291.59
2023-04-22T15:48:30.000Z,291.57
2023-04-22T15:50:36.000Z,291.55
2023-04-22T15:53:31.000Z,291.5
2023-04-22T15:54:57.000Z,291.48
2023-04-22T15:57:03.000Z,291.48
2023-04-22T15:58:30.000Z,291.45
2023-04-22T16:00:40.000Z,291.41
2023-04-22T16:02:06.000Z,291.38
2023-04-22T16:04:13.000Z,291.34
2023-04-22T16:05:40.000Z,291.3
2023-04-22T16:07:46.000Z,291.28
2023-04-22T16:09:12.000Z,291.23
2023-04-22T16:11:19.000Z,291.2
2023-04-22T16:12:45.000Z,291.17
2023-04-22T16:14:51.000Z,291.14
2023-04-22T16:16:18.000Z,291.13
2023-04-22T16:18:24.000Z,291.1
2023-04-22T16:19:50.000Z,291.09
2023-04-22T16:21:57.000Z,291.04
2023-04-22T16:23:23.000Z,290.98
2023-04-22T16:25:29.000Z,290.89
2023-04-22T16:26:56.000Z,290.78
2023-04-22T16:29:02.000Z,290.7
2023-04-22T16:31:53.000Z,290.59
2023-04-22T16:33:20.000Z,290.53
2023-04-22T16:35:26.000Z,290.49
2023-04-22T16:36:52.000Z,290.45
2023-04-22T16:38:58.000Z,290.42
2023-04-22T16:40:25.000Z,290.42
2023-04-22T16:42:31.000Z,290.41
2023-04-22T16:43:58.000Z,290.37
2023-04-22T16:46:04.000Z,290.35
2023-04-22T16:47:30.000Z,290.34
2023-04-22T16:49:37.000Z,290.34
2023-04-22T16:51:03.000Z,290.33
2023-04-22T16:53:09.000Z,290.34
2023-04-22T16:54:36.000Z,290.37
2023-04-22T16:56:42.000Z,290.34
2023-04-22T16:58:09.000Z,290.34
2023-04-22T17:00:15.000Z,290.37
2023-04-22T17:01:42.000Z,290.38
2023-04-22T17:03:48.000Z,290.39
2023-04-22T17:05:15.000Z,290.38
2023-04-22T17:07:21.000Z,290.35
2023-04-22T17:10:12.000Z,290.35
2023-04-22T17:11:39.000Z,290.33
2023-04-22T17:13:45.000Z,290.28
2023-04-22T17:15:11.000Z,290.25
2023-04-22T17:17:18.000Z,290.22
2023-04-22T17:18:44.000Z,290.22
2023-04-22T17:20:50.000Z,290.22
2023-04-22T17:22:17.000Z,290.23
2023-04-22T17:24:23.000Z,290.2
2023-04-22T17:25:49.000Z,290.19
2023-04-22T17:27:55.000Z,290.19
2023-04-22T17:29:22.000Z,290.16
2023-04-22T17:31:28.000Z,290.16
2023-04-22T17:32:55.000Z,290.13
2023-04-22T17:35:01.000Z,290.11
2023-04-22T17:36:28.000Z,290.04
2023-04-22T17:38:34.000Z,290.01
2023-04-22T17:40:00.000Z,289.97
2023-04-22T17:42:06.000Z,289.94
2023-04-22T17:43:33.000Z,289.91
2023-04-22T17:45:39.000Z,289.87
2023-04-22T17:48:30.000Z,289.83
2023-04-22T17:49:57.000Z,289.81
2023-04-22T17:52:03.000Z,289.77
2023-04-22T17:53:29.000Z,289.76
2023-04-22T17:55:35.000Z,289.74
2023-04-22T17:57:02.000Z,289.72
2023-04-22T17:59:08.000Z,289.7
2023-04-22T18:00:34.000Z,289.69
2023-04-22T18:02:41.000Z,289.62
2023-04-22T18:04:07.000Z,289.59
2023-04-22T18:06:14.000Z,289.55
2023-04-22T18:07:40.000Z,289.51
2023-04-22T18:09:47.000Z,289.44
2023-04-22T18:11:13.000Z,289.42
2023-04-22T18:13:19.000Z,289.39
2023-04-22T18:14:46.000Z,289.36
2023-04-22T18:16:52.000Z,289.35
2023-04-22T18:18:19.000Z,289.3
2023-04-22T18:20:25.000Z,289.29
2023-04-22T18:21:51.000Z,289.25
2023-04-22T18:24:06.000Z,289.23
2023-04-22T18:26:57.000Z,289.18
2023-04-22T18:28:24.000Z,289.12
2023-04-22T18:30:30.000Z,289.12
2023-04-22T18:31:58.000Z,289.08
2023-04-22T18:34:05.000Z,289.05
2023-04-22T18:35:31.000Z,289.04
2023-04-22T18:37:37.000Z,289.03
2023-04-22T18:39:04.000Z,289
2023-04-22T18:41:10.000Z,288.97
2023-04-22T18:42:36.000Z,288.94
2023-04-22T18:44:42.000Z,288.9
2023-04-22T18:46:09.000Z,288.87
2023-04-22T18:48:16.000Z,288.81
2023-04-22T18:49:42.000Z,288.79
2023-04-22T18:51:48.000Z,288.77
2023-04-22T18:53:15.000Z,288.71
2023-04-22T18:55:21.000Z,288.67
2023-04-22T18:56:47.000Z,288.61
2023-04-22T18:58:54.000Z,288.56
2023-04-22T19:00:21.000Z,288.53
2023-04-22T19:02:27.000Z,288.47
2023-04-22T19:05:19.000Z,288.43
2023-04-22T19:06:45.000Z,288.39
2023-04-22T19:08:51.000Z,288.36
2023-04-22T19:10:18.000Z,288.35
2023-04-22T19:12:24.000Z,288.32
2023-04-22T19:13:50.000Z,288.27
2023-04-22T19:15:59.000Z,288.24
2023-04-22T19:17:26.000Z,288.2
2023-04-22T19:19:32.000Z,288.17
2023-04-22T19:20:58.000Z,288.12
2023-04-22T19:23:04.000Z,288.1
2023-04-22T19:24:31.000Z,288.06
2023-04-22T19:26:37.000Z,288.02
2023-04-22T19:28:03.000Z,287.99
2023-04-22T19:30:10.000Z,287.96
2023-04-22T19:31:36.000Z,287.93
2023-04-22T19:33:42.000Z,287.92
2023-04-22T19:35:09.000Z,287.91
2023-04-22T19:37:15.000Z,287.88
2023-04-22T19:38:41.000Z,287.85
2023-04-22T19:40:48.000Z,287.8
2023-04-22T19:43:38.000Z,287.74
2023-04-22T19:45:05.000Z,287.73
2023-04-22T19:47:11.000Z,287.73
2023-04-22T19:48:38.000Z,287.73
2023-04-22T19:50:44.000Z,287.73
2023-04-22T19:52:10.000Z,287.73
2023-04-22T19:54:16.000Z,287.75
2023-04-22T19:55:43.000Z,287.74
2023-04-22T19:57:49.000Z,287.73
2023-04-22T19:59:15.000Z,287.7
2023-04-22T20:01:21.000Z,287.68
2023-04-22T20:02:48.000Z,287.68
2023-04-22T20:04:54.000Z,287.66
2023-04-22T20:06:21.000Z,287.66
2023-04-22T20:08:27.000Z,287.63
2023-04-22T20:09:53.000Z,287.63
2023-04-22T20:11:59.000Z,287.61
2023-04-22T20:13:26.000Z,287.59
2023-04-22T20:15:32.000Z,287.57
2023-04-22T20:16:59.000Z,287.53
2023-04-22T20:19:05.000Z,287.52
2023-04-22T20:21:56.000Z,287.49
2023-04-22T20:23:23.000Z,287.46
2023-04-22T20:25:29.000Z,287.46
2023-04-22T20:26:55.000Z,287.42
2023-04-22T20:29:01.000Z,287.42
2023-04-22T20:30:28.000Z,287.41
2023-04-22T20:32:34.000Z,287.4
2023-04-22T20:34:00.000Z,287.35
2023-04-22T20:36:06.000Z,287.35
2023-04-22T20:37:33.000Z,287.34
2023-04-22T20:39:39.000Z,287.34
2023-04-22T20:41:06.000Z,287.3
2023-04-22T20:43:12.000Z,287.27
2023-04-22T20:44:38.000Z,287.24
2023-04-22T20:46:44.000Z,287.2
2023-04-22T20:48:11.000Z,287.14
2023-04-22T20:50:17.000Z,287.12
2023-04-22T20:51:44.000Z,287.09
2023-04-22T20:53:50.000Z,287.07
2023-04-22T20:55:16.000Z,287.02
2023-04-22T20:57:23.000Z,286.98
2023-04-22T21:00:14.000Z,286.9
2023-04-22T21:02:04.000Z,286.84
2023-04-22T21:04:11.000Z,286.86
2023-04-22T21:05:37.000Z,286.83
2023-04-22T21:07:44.000Z,286.82
2023-04-22T21:09:10.000Z,286.83
2023-04-22T21:11:16.000Z,286.8
2023-04-22T21:12:43.000Z,286.76
2023-04-22T21:14:49.000Z,286.77
2023-04-22T21:16:15.000Z,286.79
2023-04-22T21:18:22.000Z,286.77
2023-04-22T21:19:48.000Z,286.75
2023-04-22T21:21:54.000Z,286.75
2023-04-22T21:23:21.000Z,286.72
2023-04-22T21:25:27.000Z,286.72
2023-04-22T21:26:53.000Z,286.7
2023-04-22T21:29:00.000Z,286.68
2023-04-22T21:30:26.000Z,286.68
2023-04-22T21:32:32.000Z,286.68
2023-04-22T21:36:33.000Z,286.72
2023-04-22T21:39:24.000Z,286.72
2023-04-22T21:40:51.000Z,286.7
2023-04-22T21:42:57.000Z,286.7
2023-04-22T21:44:23.000Z,286.73
2023-04-22T21:46:29.000Z,286.72
2023-04-22T21:47:56.000Z,286.7
2023-04-22T21:50:02.000Z,286.7
2023-04-22T21:51:28.000Z,286.69
2023-04-22T21:53:34.000Z,286.66
2023-04-22T21:55:01.000Z,286.65
2023-04-22T21:57:07.000Z,286.63
2023-04-22T21:58:34.000Z,286.61
2023-04-22T22:00:40.000Z,286.59
2023-04-22T22:02:06.000Z,286.59
2023-04-22T22:04:12.000Z,286.58
2023-04-22T22:05:42.000Z,286.56
2023-04-22T22:07:48.000Z,286.55
2023-04-22T22:09:15.000Z,286.54
2023-04-22T22:11:21.000Z,286.52
2023-04-22T22:12:57.000Z,286.5
2023-04-22T22:15:03.000Z,286.5
2023-04-22T22:17:55.000Z,286.47
2023-04-22T22:19:21.000Z,286.48
2023-04-22T22:21:27.000Z,286.44
2023-04-22T22:22:54.000Z,286.44
2023-04-22T22:25:00.000Z,286.41
2023-04-22T22:26:26.000Z,286.38
2023-04-22T22:28:32.000Z,286.38
2023-04-22T22:29:59.000Z,286.37
2023-04-22T22:32:05.000Z,286.33
2023-04-22T22:33:32.000Z,286.31
2023-04-22T22:35:38.000Z,286.31
2023-04-22T22:37:04.000Z,286.29
2023-04-22T22:39:10.000Z,286.29
2023-04-22T22:40:37.000Z,286.29
2023-04-22T22:42:43.000Z,286.29
2023-04-22T22:44:10.000Z,286.27
2023-04-22T22:46:16.000Z,286.26
2023-04-22T22:47:42.000Z,286.23
2023-04-22T22:49:48.000Z,286.22
2023-04-22T22:51:15.000Z,286.2
2023-04-22T22:53:24.000Z,286.2